Grants Pass, Oregon
Current Conditions -  °F | °C
As of 3:17 AM on Tuesday 21 Oct 2014 (Local Time) from KSXT Reporting Station
Moderate Fog Moderate Fog  
Wind Chill: 31°   Ceiling: 200
Heat Index: 39°   Visibility: 0.5mi
Dew Point: 39°   Wind: 13mph
Humidity: 100%   Direction: 180°S
Pressure: 29.99"   Gusts: 21mph
Location:  42.44°N, 123.32°W
Report Text: KSXT 211017Z AUTO 18011G18KT 1/2SM FG VV002 04/04 A2999 RMK AO2 T00390039
Loading
Personal Weather Stations






























Interactive Weather Map
Tropical Storm Tracking
New forecast layout! Learn more

10-Day Weather Forecast

Advertisements
Track Severe Weather on mobile